ORD weather

Chicago O'Hare International Airport
Chicago, Illinois, United States

Public forecast

Using degrees Fahrenheit for public forecast. Weather courtesy of forecast.io.

Current aviation weather report (METAR) for Chicago O'Hare International Airport

Retrieved 2019/10/23 00:51 UTC (1 hour ago):

KORD 230051Z 24013G26KT 10SM OVC050 10/02 A2976 RMK AO2 PK WND 23026/0051 SLP079 T01000022

Aviation forecast (TAF) for Chicago O'Hare International Airport

Retrieved 2019-10-23 00:22 UTC (2 hours ago):

TAF KORD 222320Z 2300/2406 25015G25KT P6SM BKN040 FM230300 25012G20KT P6SM BKN040 FM230600 24012KT P6SM FEW040 FM231500 22012G17KT P6SM BKN100 PROB30 2315/2319 -SHRA BKN060 FM231900 20010KT P6SM OVC060 FM240200 33009KT P6SM BKN035